Time;durP1;ratioP1;P1;durP2;ratioP2;P2;SDS_P1;SDS_P2;PMS_P1;PMS_P2;Temp;Humidity;BMP_temperature;BMP_pressure;BME280_temperature;BME280_humidity;BME280_pressure;Samples;Min_cycle;Max_cycle;Signal;HPM_P1;HPM_P2
2023/06/02 00:02:14;;;;;;;321.30;307.52;;;10.50;99.90;;;;;;4986367;28;20038;-76
2023/06/02 00:04:40;;;;;;;320.75;306.98;;;10.50;99.90;;;;;;4986606;28;20122;-78
2023/06/02 00:07:07;;;;;;;334.13;319.88;;;10.50;99.90;;;;;;4984357;28;20124;-78
2023/06/02 00:09:41;;;;;;;335.10;320.73;;;10.50;99.90;;;;;;4977702;28;20124;-77
2023/06/02 00:12:07;;;;;;;329.85;316.17;;;10.50;99.90;;;;;;4986374;28;20112;-78
2023/06/02 00:14:34;;;;;;;334.70;320.20;;;10.50;99.90;;;;;;4986853;28;20145;-77
2023/06/02 00:17:00;;;;;;;333.25;318.92;;;10.50;99.90;;;;;;4972464;28;20125;-76
2023/06/02 00:19:32;;;;;;;325.15;310.80;;;10.50;99.90;;;;;;4986946;28;20069;-77
2023/06/02 00:22:01;;;;;;;339.15;324.80;;;10.50;99.90;;;;;;4985313;28;20361;-77
2023/06/02 00:24:26;;;;;;;333.30;318.95;;;10.50;99.90;;;;;;4986059;28;20084;-77
2023/06/02 00:26:52;;;;;;;321.83;308.17;;;10.40;99.90;;;;;;4986549;28;20479;-76
2023/06/02 00:29:18;;;;;;;328.40;314.25;;;10.50;99.90;;;;;;4970312;28;20048;-77
2023/06/02 00:31:43;;;;;;;320.02;306.67;;;10.40;99.90;;;;;;4985042;28;20616;-77
2023/06/02 00:34:09;;;;;;;326.17;312.45;;;10.40;99.90;;;;;;4983700;28;20070;-77
2023/06/02 00:36:35;;;;;;;334.30;320.23;;;10.40;99.90;;;;;;4985168;28;20092;-77
2023/06/02 00:39:00;;;;;;;332.27;318.30;;;10.50;99.90;;;;;;4969722;28;20069;-77
2023/06/02 00:41:26;;;;;;;339.50;324.92;;;10.40;99.90;;;;;;4992250;28;20038;-77
2023/06/02 00:43:52;;;;;;;345.15;330.27;;;10.40;99.90;;;;;;4988628;28;20038;-77
2023/06/02 00:46:18;;;;;;;344.95;330.17;;;10.40;99.90;;;;;;4988758;28;20442;-77
2023/06/02 00:48:46;;;;;;;347.05;332.38;;;10.30;99.90;;;;;;4985774;28;20431;-77
2023/06/02 00:51:12;;;;;;;339.55;324.95;;;10.30;99.90;;;;;;4970023;28;20108;-78
2023/06/02 00:53:38;;;;;;;328.63;314.30;;;10.30;99.90;;;;;;4984946;28;20073;-77
2023/06/02 00:56:04;;;;;;;349.45;334.35;;;10.20;99.90;;;;;;4986442;28;20042;-77
2023/06/02 00:58:30;;;;;;;355.25;339.95;;;10.20;99.90;;;;;;4987948;28;20041;-76
2023/06/02 01:00:56;;;;;;;361.85;345.60;;;10.20;99.90;;;;;;4986235;28;20157;-77
2023/06/02 01:03:26;;;;;;;350.23;335.20;;;10.20;99.90;;;;;;4985077;28;20049;-77
2023/06/02 01:05:53;;;;;;;343.38;328.55;;;10.20;99.90;;;;;;4985164;28;20038;-76
2023/06/02 01:08:20;;;;;;;367.00;350.83;;;10.20;99.90;;;;;;4986225;28;20062;-77
2023/06/02 01:10:46;;;;;;;365.30;349.42;;;10.20;99.90;;;;;;4981872;28;20059;-76
2023/06/02 01:13:12;;;;;;;367.83;351.83;;;10.20;99.90;;;;;;4985287;28;20053;-78
2023/06/02 01:15:38;;;;;;;371.48;354.85;;;10.20;99.90;;;;;;4986142;28;20402;-77
2023/06/02 01:18:09;;;;;;;360.60;344.10;;;10.20;99.90;;;;;;4982116;28;20133;-77
2023/06/02 01:20:40;;;;;;;353.90;338.13;;;10.20;99.90;;;;;;4977099;28;20038;-76
2023/06/02 01:23:21;;;;;;;370.25;353.70;;;10.20;99.90;;;;;;4982158;28;20109;-77
2023/06/02 01:25:47;;;;;;;368.52;352.10;;;10.20;99.90;;;;;;4984411;28;20077;-76
2023/06/02 01:28:14;;;;;;;362.27;346.15;;;10.20;99.90;;;;;;4980901;28;20046;-77
2023/06/02 01:30:39;;;;;;;355.00;338.70;;;10.20;99.90;;;;;;4969935;28;20046;-77
2023/06/02 01:33:38;;;;;;;356.15;340.63;;;10.20;99.90;;;;;;4985580;28;20050;-79
2023/06/02 01:36:04;;;;;;;381.98;365.33;;;10.10;99.90;;;;;;4989063;28;20050;-78
2023/06/02 01:38:31;;;;;;;390.48;373.08;;;10.10;99.90;;;;;;4989021;28;20046;-77
2023/06/02 01:41:00;;;;;;;385.50;367.95;;;10.10;99.90;;;;;;4989339;28;20556;-76
2023/06/02 01:43:29;;;;;;;393.33;375.55;;;10.10;99.90;;;;;;4989790;28;20433;-76
2023/06/02 01:45:56;;;;;;;409.15;390.83;;;10.00;99.90;;;;;;4987519;28;20043;-77
2023/06/02 01:48:22;;;;;;;415.13;396.33;;;10.00;99.90;;;;;;4984915;28;20101;-76
2023/06/02 01:50:47;;;;;;;428.15;408.80;;;10.00;99.90;;;;;;4987384;28;20317;-77
2023/06/02 01:53:13;;;;;;;439.48;419.40;;;9.90;99.90;;;;;;4988702;28;20531;-77
2023/06/02 01:55:39;;;;;;;448.67;428.13;;;9.90;99.90;;;;;;4989534;28;20081;-77
2023/06/02 01:58:04;;;;;;;457.98;436.98;;;9.90;99.90;;;;;;4989124;28;20499;-76
2023/06/02 02:00:30;;;;;;;472.08;450.33;;;9.90;99.90;;;;;;4984917;28;20069;-77
2023/06/02 02:02:58;;;;;;;469.20;447.45;;;9.90;99.90;;;;;;4986452;28;20052;-77
2023/06/02 02:05:23;;;;;;;451.30;430.58;;;9.90;99.90;;;;;;4970702;28;20039;-78
2023/06/02 02:07:50;;;;;;;462.13;441.13;;;10.00;99.90;;;;;;4989226;28;20093;-76
2023/06/02 02:10:17;;;;;;;460.45;438.75;;;10.00;99.90;;;;;;4988263;28;20125;-77
2023/06/02 02:12:42;;;;;;;445.05;424.58;;;10.00;99.90;;;;;;4989299;28;20050;-77
2023/06/02 02:15:09;;;;;;;443.50;423.05;;;10.10;99.90;;;;;;4972024;28;20402;-76
2023/06/02 02:17:36;;;;;;;435.40;415.52;;;10.00;99.90;;;;;;4988607;28;20077;-77
2023/06/02 02:20:05;;;;;;;445.60;424.98;;;10.00;99.90;;;;;;4979719;28;20391;-77
2023/06/02 02:22:32;;;;;;;436.83;416.65;;;10.10;99.90;;;;;;4985528;28;20046;-77
2023/06/02 02:24:57;;;;;;;430.30;410.35;;;10.10;99.90;;;;;;4987679;28;20046;-79
2023/06/02 02:27:23;;;;;;;437.25;417.10;;;10.20;99.90;;;;;;4988174;28;20049;-77
2023/06/02 02:29:49;;;;;;;438.80;418.55;;;10.10;99.90;;;;;;4990760;28;20169;-77
2023/06/02 02:32:14;;;;;;;425.80;405.77;;;10.10;99.90;;;;;;4988294;28;20510;-77
2023/06/02 02:34:40;;;;;;;418.45;399.20;;;10.20;99.90;;;;;;5005859;28;20117;-77
2023/06/02 02:37:09;;;;;;;416.17;397.20;;;10.20;99.90;;;;;;4989016;28;20419;-77
2023/06/02 02:39:35;;;;;;;432.33;412.45;;;10.20;99.90;;;;;;4969962;28;20065;-77
2023/06/02 02:42:00;;;;;;;422.75;403.23;;;10.20;99.90;;;;;;4987283;28;20034;-77
2023/06/02 02:44:26;;;;;;;414.58;395.42;;;10.20;99.90;;;;;;4993082;28;20088;-77
2023/06/02 02:46:52;;;;;;;424.33;404.92;;;10.20;99.90;;;;;;4987835;28;20080;-77
2023/06/02 02:49:17;;;;;;;421.60;401.70;;;10.20;99.90;;;;;;4988822;28;20046;-77
2023/06/02 02:51:43;;;;;;;414.88;396.10;;;10.20;99.90;;;;;;4989090;28;20081;-76
2023/06/02 02:54:09;;;;;;;434.10;413.70;;;10.20;99.90;;;;;;4982948;28;20070;-77
2023/06/02 02:56:36;;;;;;;423.42;403.88;;;10.20;99.90;;;;;;4985232;28;20093;-78
2023/06/02 02:59:02;;;;;;;425.38;405.98;;;10.20;99.90;;;;;;4966832;28;20530;-76
2023/06/02 03:01:29;;;;;;;424.58;404.88;;;10.20;99.90;;;;;;4983138;28;20039;-77
2023/06/02 03:03:56;;;;;;;406.88;388.52;;;10.20;99.90;;;;;;4971303;28;20034;-77
2023/06/02 03:06:28;;;;;;;402.02;383.48;;;10.30;99.90;;;;;;4986993;28;20065;-78
2023/06/02 03:08:53;;;;;;;398.65;381.08;;;10.30;99.90;;;;;;4987917;28;20046;-76
2023/06/02 03:11:21;;;;;;;397.23;378.40;;;10.30;99.90;;;;;;4976732;28;20125;-78
2023/06/02 03:13:47;;;;;;;376.45;359.92;;;10.30;99.90;;;;;;4962904;28;20038;-78
2023/06/02 03:16:13;;;;;;;384.27;367.23;;;10.30;99.90;;;;;;4988447;28;20052;-77
2023/06/02 03:18:38;;;;;;;381.27;364.35;;;10.30;99.90;;;;;;4987341;28;20486;-77
2023/06/02 03:21:05;;;;;;;360.52;344.27;;;10.30;99.90;;;;;;4985346;28;20056;-77
2023/06/02 03:23:31;;;;;;;348.20;332.83;;;10.40;99.90;;;;;;4984177;28;20502;-77
2023/06/02 03:25:57;;;;;;;350.35;335.10;;;10.30;99.90;;;;;;4987437;28;20045;-77
2023/06/02 03:28:23;;;;;;;362.25;345.90;;;10.40;99.90;;;;;;4970036;28;21405;-77
2023/06/02 03:30:48;;;;;;;355.40;340.02;;;10.40;99.90;;;;;;4986073;28;20050;-77
2023/06/02 03:33:14;;;;;;;350.42;335.27;;;10.40;99.90;;;;;;4985777;28;20053;-77
2023/06/02 03:35:40;;;;;;;331.92;316.65;;;10.40;99.90;;;;;;4985647;28;20178;-78
2023/06/02 03:38:06;;;;;;;337.50;322.50;;;10.40;99.90;;;;;;4971157;28;20477;-77
2023/06/02 03:40:34;;;;;;;327.33;313.17;;;10.40;99.90;;;;;;4981773;28;20146;-77
2023/06/02 03:42:59;;;;;;;327.67;313.30;;;10.50;99.90;;;;;;4987820;28;20049;-77
2023/06/02 03:45:25;;;;;;;316.15;302.73;;;10.50;99.90;;;;;;4985675;28;20489;-78
2023/06/02 03:47:51;;;;;;;301.55;287.77;;;10.50;99.90;;;;;;5002394;28;20046;-77
2023/06/02 03:50:16;;;;;;;295.90;282.85;;;10.50;99.90;;;;;;4983816;28;20125;-78
2023/06/02 03:52:42;;;;;;;291.77;279.20;;;10.50;99.90;;;;;;4983822;28;20499;-77
2023/06/02 03:55:08;;;;;;;284.17;271.65;;;10.50;99.90;;;;;;4986456;28;20078;-77
2023/06/02 03:57:34;;;;;;;280.58;268.73;;;10.50;99.90;;;;;;4981112;28;20045;-77
2023/06/02 03:59:59;;;;;;;269.60;257.92;;;10.60;99.90;;;;;;4987149;28;20426;-78
2023/06/02 04:02:25;;;;;;;263.83;252.52;;;10.60;99.90;;;;;;4966216;28;20053;-77
2023/06/02 04:04:51;;;;;;;272.58;260.77;;;10.60;99.90;;;;;;4989356;28;20064;-78
2023/06/02 04:07:17;;;;;;;256.60;245.63;;;10.60;99.90;;;;;;4985339;28;20042;-76
2023/06/02 04:09:42;;;;;;;250.30;240.00;;;10.60;99.90;;;;;;4988038;28;20100;-76
2023/06/02 04:12:08;;;;;;;234.40;224.05;;;10.70;99.90;;;;;;4983857;28;20042;-77
2023/06/02 04:14:34;;;;;;;238.80;227.98;;;10.70;99.90;;;;;;4977586;28;20215;-77
2023/06/02 04:17:00;;;;;;;203.65;195.05;;;10.70;99.90;;;;;;4983230;28;20069;-79
2023/06/02 04:19:25;;;;;;;201.68;192.43;;;10.80;99.90;;;;;;4985626;28;20151;-78
2023/06/02 04:21:53;;;;;;;194.20;185.48;;;10.80;99.90;;;;;;4987379;28;20525;-77
2023/06/02 04:24:18;;;;;;;192.75;184.98;;;10.80;99.90;;;;;;4987170;28;20050;-78
2023/06/02 04:26:45;;;;;;;203.48;194.48;;;10.90;99.90;;;;;;4965066;28;20046;-77
2023/06/02 04:29:11;;;;;;;190.35;182.07;;;10.90;99.90;;;;;;4986084;28;20042;-77
2023/06/02 04:31:45;;;;;;;185.38;177.52;;;10.90;99.90;;;;;;4969559;28;20038;-77
2023/06/02 04:34:12;;;;;;;192.07;183.00;;;10.90;99.90;;;;;;5003491;28;20046;-77
2023/06/02 04:36:38;;;;;;;185.48;177.55;;;11.00;99.90;;;;;;4982303;28;20460;-78
2023/06/02 04:39:08;;;;;;;172.35;164.68;;;11.00;99.90;;;;;;4978763;28;20057;-78
2023/06/02 04:41:36;;;;;;;165.10;158.07;;;11.00;99.90;;;;;;4992054;28;20111;-78
2023/06/02 04:44:03;;;;;;;167.23;159.57;;;11.10;99.90;;;;;;4985711;28;20038;-77
2023/06/02 04:46:28;;;;;;;168.32;160.50;;;11.10;99.90;;;;;;4980696;28;20069;-77
2023/06/02 04:48:54;;;;;;;153.60;147.23;;;11.10;99.90;;;;;;4965229;28;20504;-77
2023/06/02 04:51:29;;;;;;;150.77;143.93;;;11.20;99.90;;;;;;4986510;28;20133;-77
2023/06/02 04:53:55;;;;;;;155.35;148.63;;;11.30;99.90;;;;;;4983483;28;20042;-78
2023/06/02 04:56:22;;;;;;;146.60;140.23;;;11.30;99.90;;;;;;4983836;28;20430;-77
2023/06/02 04:58:47;;;;;;;146.07;139.90;;;11.20;99.90;;;;;;4969610;28;20034;-77
2023/06/02 05:01:13;;;;;;;146.82;139.88;;;11.30;99.90;;;;;;4985059;28;20049;-76
2023/06/02 05:03:39;;;;;;;140.23;132.98;;;11.30;99.90;;;;;;4968612;28;20049;-77
2023/06/02 05:06:05;;;;;;;122.65;116.93;;;11.40;99.90;;;;;;4984939;28;20080;-77
2023/06/02 05:08:31;;;;;;;115.05;109.93;;;11.40;99.90;;;;;;4985137;28;20046;-77
2023/06/02 05:10:56;;;;;;;113.88;108.47;;;11.50;99.90;;;;;;4976249;28;20127;-77
2023/06/02 05:13:23;;;;;;;106.88;102.03;;;11.40;99.90;;;;;;4968887;28;20125;-76
2023/06/02 05:15:48;;;;;;;109.47;104.50;;;11.50;99.90;;;;;;4982361;28;20065;-76
2023/06/02 05:18:14;;;;;;;105.18;100.57;;;11.50;99.90;;;;;;4982404;28;20597;-77
2023/06/02 05:20:41;;;;;;;109.13;104.32;;;11.50;99.90;;;;;;4986249;28;20046;-77
2023/06/02 05:23:07;;;;;;;97.15;92.78;;;11.60;99.90;;;;;;4966851;28;20034;-77
2023/06/02 05:25:32;;;;;;;105.40;100.55;;;11.60;99.90;;;;;;4981146;28;20129;-77
2023/06/02 05:27:58;;;;;;;107.55;102.25;;;11.70;99.90;;;;;;4981043;28;20129;-76
2023/06/02 05:30:24;;;;;;;94.40;89.82;;;11.70;99.90;;;;;;5000020;28;20117;-77
2023/06/02 05:32:50;;;;;;;103.28;98.47;;;11.70;99.90;;;;;;4985892;28;20129;-77
2023/06/02 05:35:15;;;;;;;98.97;94.75;;;11.80;99.90;;;;;;4980868;28;20510;-77
2023/06/02 05:37:42;;;;;;;101.43;96.00;;;11.80;99.90;;;;;;4981879;28;20485;-77
2023/06/02 05:40:08;;;;;;;93.85;89.45;;;11.80;99.90;;;;;;4985271;28;20837;-77
2023/06/02 05:42:34;;;;;;;102.20;96.95;;;11.90;99.90;;;;;;4984824;28;20039;-77
2023/06/02 05:45:02;;;;;;;101.43;96.88;;;11.90;99.90;;;;;;4984949;28;20042;-78
2023/06/02 05:47:30;;;;;;;96.00;91.20;;;12.00;99.90;;;;;;4984584;28;20506;-77
2023/06/02 05:49:55;;;;;;;93.20;88.65;;;12.00;99.90;;;;;;4986416;28;20057;-77
2023/06/02 05:52:21;;;;;;;97.00;92.32;;;12.10;99.90;;;;;;4983419;28;20042;-76
2023/06/02 05:54:47;;;;;;;96.97;92.38;;;12.20;99.90;;;;;;4979459;28;20365;-77
2023/06/02 05:57:12;;;;;;;89.97;85.68;;;12.20;99.90;;;;;;4984554;28;20049;-77
2023/06/02 05:59:39;;;;;;;93.03;88.40;;;12.30;99.90;;;;;;4979739;28;20034;-77
2023/06/02 06:02:06;;;;;;;90.60;86.05;;;12.40;99.90;;;;;;4984716;28;20085;-78
2023/06/02 06:04:34;;;;;;;91.43;87.10;;;12.40;99.90;;;;;;5001915;28;20052;-77
2023/06/02 06:07:02;;;;;;;90.43;86.18;;;12.50;99.90;;;;;;4985902;28;20105;-76
2023/06/02 06:09:28;;;;;;;89.20;84.28;;;12.60;99.90;;;;;;4986778;28;20141;-76
2023/06/02 06:11:54;;;;;;;74.75;70.75;;;12.70;99.90;;;;;;4985461;28;20165;-77
2023/06/02 06:14:19;;;;;;;64.47;60.33;;;12.80;99.90;;;;;;4986246;28;20617;-76
2023/06/02 06:16:45;;;;;;;62.28;59.20;;;12.90;99.90;;;;;;4985763;28;20095;-78
2023/06/02 06:19:11;;;;;;;72.30;68.72;;;12.90;99.90;;;;;;4984837;28;20046;-76
2023/06/02 06:21:37;;;;;;;61.47;58.17;;;12.90;99.90;;;;;;4972786;28;20031;-76
2023/06/02 06:24:06;;;;;;;58.83;55.50;;;13.00;99.90;;;;;;4987924;28;20051;-77
2023/06/02 06:26:32;;;;;;;62.50;58.88;;;13.00;99.90;;;;;;4983991;28;20039;-76
2023/06/02 06:28:58;;;;;;;61.17;57.53;;;13.10;99.90;;;;;;4980081;28;20049;-77
2023/06/02 06:31:25;;;;;;;54.53;50.97;;;13.20;99.90;;;;;;4986916;28;20097;-77
2023/06/02 06:33:51;;;;;;;57.78;53.88;;;13.30;99.90;;;;;;4989260;28;20046;-77
2023/06/02 06:36:17;;;;;;;76.68;72.05;;;13.40;99.90;;;;;;4996853;28;20042;-77
2023/06/02 06:38:42;;;;;;;83.50;79.13;;;13.40;99.90;;;;;;4972983;28;20046;-77
2023/06/02 06:41:08;;;;;;;86.85;82.65;;;13.40;99.90;;;;;;4989472;28;20133;-77
2023/06/02 06:43:34;;;;;;;87.47;82.32;;;13.50;99.90;;;;;;4977495;28;20049;-78
2023/06/02 06:46:00;;;;;;;95.05;90.30;;;13.50;99.90;;;;;;4987112;28;20053;-76
2023/06/02 06:48:25;;;;;;;111.65;106.13;;;13.50;99.90;;;;;;4989404;28;20038;-76
2023/06/02 06:50:51;;;;;;;73.75;69.40;;;13.60;99.90;;;;;;4984452;28;20521;-76
2023/06/02 06:53:18;;;;;;;50.40;47.58;;;13.60;99.90;;;;;;4983612;28;20516;-78
2023/06/02 06:55:44;;;;;;;66.75;63.25;;;13.80;99.90;;;;;;4989019;28;20078;-77
2023/06/02 06:58:10;;;;;;;64.82;61.53;;;14.00;99.90;;;;;;4986731;28;20490;-77
2023/06/02 07:00:35;;;;;;;70.38;66.75;;;14.20;99.90;;;;;;4987549;28;20113;-77
2023/06/02 07:03:01;;;;;;;71.20;67.07;;;14.50;99.90;;;;;;4988301;28;20046;-77
2023/06/02 07:05:29;;;;;;;69.65;65.63;;;14.80;99.90;;;;;;4987754;28;20080;-77
2023/06/02 07:07:55;;;;;;;62.83;59.20;;;15.00;99.90;;;;;;4964434;28;20038;-78
2023/06/02 07:10:20;;;;;;;69.15;64.72;;;15.20;99.90;;;;;;4988329;28;20117;-77
2023/06/02 07:12:46;;;;;;;67.50;63.63;;;15.50;99.90;;;;;;4983279;28;20496;-79
2023/06/02 07:15:12;;;;;;;74.80;70.50;;;15.60;99.90;;;;;;4982786;28;20414;-77
2023/06/02 07:17:41;;;;;;;69.65;65.20;;;15.70;99.90;;;;;;4980894;28;20046;-78
2023/06/02 07:20:09;;;;;;;59.70;56.17;;;16.20;99.90;;;;;;4987592;28;20076;-76
2023/06/02 07:22:35;;;;;;;55.88;52.00;;;16.60;99.90;;;;;;4981955;28;20046;-79
2023/06/02 07:25:02;;;;;;;45.00;42.08;;;16.70;99.90;;;;;;4972368;28;20088;-78
2023/06/02 07:27:28;;;;;;;34.85;32.25;;;17.20;99.90;;;;;;4988617;28;20082;-77
2023/06/02 07:29:54;;;;;;;30.00;28.10;;;17.60;99.90;;;;;;4988448;28;20089;-77
2023/06/02 07:32:19;;;;;;;31.65;29.58;;;17.40;99.90;;;;;;4983011;28;20145;-79
2023/06/02 07:34:45;;;;;;;27.63;25.73;;;17.60;99.90;;;;;;4988317;28;20522;-76
2023/06/02 07:37:11;;;;;;;27.48;25.30;;;18.20;99.90;;;;;;4987177;28;20049;-77
2023/06/02 07:39:36;;;;;;;23.20;21.52;;;18.90;99.90;;;;;;4988401;28;20042;-80
2023/06/02 07:42:02;;;;;;;20.55;18.52;;;19.60;99.90;;;;;;4970783;28;20074;-78
2023/06/02 07:44:28;;;;;;;28.30;26.15;;;20.10;99.90;;;;;;4989026;28;20124;-81
2023/06/02 07:46:53;;;;;;;33.95;31.73;;;20.40;99.90;;;;;;4987812;28;20045;-80
2023/06/02 07:49:19;;;;;;;39.20;36.63;;;19.90;99.90;;;;;;4972274;28;20046;-77
2023/06/02 07:51:44;;;;;;;36.30;33.72;;;19.50;99.90;;;;;;4986354;28;20081;-79
2023/06/02 07:54:10;;;;;;;35.28;32.60;;;19.20;99.90;;;;;;4971911;28;20081;-79
2023/06/02 07:56:36;;;;;;;41.20;38.80;;;18.60;99.90;;;;;;4988137;28;20097;-77
2023/06/02 07:59:02;;;;;;;44.55;41.78;;;18.10;99.90;;;;;;4969300;28;20038;-78
2023/06/02 08:01:28;;;;;;;37.90;35.50;;;18.40;99.90;;;;;;4987761;28;20038;-78
2023/06/02 08:03:53;;;;;;;40.92;38.50;;;18.90;99.90;;;;;;4987395;28;20453;-78
2023/06/02 08:06:19;;;;;;;31.92;29.73;;;19.40;99.90;;;;;;4987807;28;20045;-79
2023/06/02 08:08:45;;;;;;;24.75;22.92;;;20.10;99.90;;;;;;4993662;28;20045;-77
2023/06/02 08:11:14;;;;;;;21.98;20.25;;;20.50;99.90;;;;;;4971640;28;20053;-78
2023/06/02 08:13:39;;;;;;;18.20;16.75;;;20.40;99.90;;;;;;4987928;28;20082;-79
2023/06/02 08:16:06;;;;;;;19.25;17.67;;;20.40;99.90;;;;;;4987424;28;20514;-78
2023/06/02 08:18:31;;;;;;;19.17;17.85;;;20.10;99.90;;;;;;4986321;28;20053;-79
2023/06/02 08:20:57;;;;;;;21.08;18.88;;;20.30;99.90;;;;;;4987541;28;20499;-79
2023/06/02 08:23:23;;;;;;;22.05;20.38;;;20.20;99.90;;;;;;4981688;28;20038;-77
2023/06/02 08:25:49;;;;;;;20.52;19.05;;;20.00;99.90;;;;;;4981609;28;20042;-79
2023/06/02 08:28:14;;;;;;;17.55;16.20;;;20.40;99.90;;;;;;4985798;28;20038;-81
2023/06/02 08:30:46;;;;;;;16.20;14.93;;;20.60;99.90;;;;;;4986909;28;20901;-78
2023/06/02 08:33:11;;;;;;;14.25;12.95;;;20.80;99.90;;;;;;5001328;28;20498;-79
2023/06/02 08:35:37;;;;;;;13.65;12.60;;;21.30;99.90;;;;;;4987470;28;20047;-77
2023/06/02 08:38:06;;;;;;;23.13;21.58;;;21.50;99.90;;;;;;4985117;28;20038;-79
2023/06/02 08:40:39;;;;;;;14.82;13.65;;;21.80;99.10;;;;;;4966008;28;20049;-78
2023/06/02 08:43:09;;;;;;;30.67;28.83;;;21.90;99.50;;;;;;4985084;28;20042;-80
2023/06/02 08:45:46;;;;;;;15.82;14.70;;;22.10;99.30;;;;;;4957115;28;20047;-79
2023/06/02 08:48:17;;;;;;;53.88;51.25;;;22.20;99.20;;;;;;4986223;28;20050;-77
2023/06/02 08:50:50;;;;;;;73.80;70.40;;;22.30;98.60;;;;;;4977913;28;20042;-78
2023/06/02 08:53:16;;;;;;;92.97;88.88;;;22.30;97.40;;;;;;4985279;28;20513;-78
2023/06/02 08:55:43;;;;;;;80.63;77.10;;;22.30;96.20;;;;;;4984186;28;20365;-78
2023/06/02 08:58:10;;;;;;;105.85;101.00;;;22.40;97.20;;;;;;4983990;28;20048;-79
2023/06/02 09:00:36;;;;;;;59.65;56.97;;;22.60;96.20;;;;;;4985386;28;20041;-77
2023/06/02 09:03:03;;;;;;;45.38;43.00;;;22.70;96.30;;;;;;4971644;28;20490;-79
2023/06/02 09:05:30;;;;;;;26.25;24.85;;;22.70;91.80;;;;;;4984196;28;20105;-80
2023/06/02 09:08:13;;;;;;;50.25;47.88;;;22.40;91.90;;;;;;4987505;28;20572;-78
2023/06/02 09:10:40;;;;;;;40.17;37.88;;;21.90;93.30;;;;;;4990557;28;20054;-78
2023/06/02 09:13:33;;;;;;;45.20;42.42;;;21.90;92.80;;;;;;4986700;28;20477;-79
2023/06/02 09:16:00;;;;;;;25.17;23.58;;;22.00;93.60;;;;;;4967953;28;20055;-77
2023/06/02 09:18:27;;;;;;;40.55;38.40;;;22.10;92.80;;;;;;4986155;28;20510;-79
2023/06/02 09:20:53;;;;;;;50.30;47.97;;;22.30;92.90;;;;;;4987130;28;20046;-78
2023/06/02 09:23:19;;;;;;;29.20;27.13;;;22.30;90.40;;;;;;4986000;28;20125;-79
2023/06/02 09:25:45;;;;;;;36.22;34.08;;;22.10;90.80;;;;;;4986981;28;20162;-79
2023/06/02 09:28:12;;;;;;;31.90;30.10;;;22.10;91.10;;;;;;4986902;28;20404;-78
2023/06/02 09:30:38;;;;;;;34.28;32.38;;;22.10;91.90;;;;;;4987930;28;20046;-79
2023/06/02 09:33:11;;;;;;;41.67;39.42;;;22.20;91.80;;;;;;4985813;28;20062;-78
2023/06/02 09:35:42;;;;;;;48.50;45.88;;;22.20;89.40;;;;;;4983527;28;20162;-80
2023/06/02 09:38:13;;;;;;;54.88;52.08;;;22.00;90.60;;;;;;4979597;28;20047;-79
2023/06/02 09:40:40;;;;;;;39.40;36.95;;;22.00;91.40;;;;;;4978500;28;20038;-79
2023/06/02 09:43:12;;;;;;;38.80;36.58;;;21.80;88.60;;;;;;4996072;28;20088;-78
2023/06/02 09:45:47;;;;;;;42.88;40.42;;;21.70;88.30;;;;;;4980272;28;20051;-79
2023/06/02 09:48:20;;;;;;;50.28;47.70;;;21.60;90.00;;;;;;4982392;28;20100;-77
2023/06/02 09:50:45;;;;;;;49.25;46.55;;;21.60;90.30;;;;;;4983098;28;20050;-78
2023/06/02 09:53:13;;;;;;;22.08;20.60;;;21.60;90.70;;;;;;4986323;28;20046;-78
2023/06/02 09:55:39;;;;;;;44.50;42.22;;;21.70;90.50;;;;;;4988742;28;20046;-77
2023/06/02 09:58:07;;;;;;;56.40;53.28;;;21.60;91.40;;;;;;4989271;28;20062;-77
2023/06/02 10:00:36;;;;;;;30.17;28.13;;;21.70;91.30;;;;;;4988608;28;20046;-78
2023/06/02 10:03:04;;;;;;;44.42;42.05;;;21.80;91.90;;;;;;4988977;28;20553;-77
2023/06/02 10:05:30;;;;;;;55.17;52.42;;;22.00;90.40;;;;;;4985114;28;20038;-80
2023/06/02 10:08:14;;;;;;;51.67;49.10;;;21.90;88.90;;;;;;4970206;28;20046;-78
2023/06/02 10:11:21;;;;;;;39.95;37.70;;;21.80;88.30;;;;;;4987005;28;20606;-79
2023/06/02 10:14:05;;;;;;;23.83;22.52;;;21.80;90.50;;;;;;4980795;28;20054;-80
2023/06/02 10:16:54;;;;;;;25.50;24.00;;;21.90;85.90;;;;;;4985281;28;20046;-77
2023/06/02 10:19:48;;;;;;;28.83;27.20;;;21.70;83.30;;;;;;4985190;28;20049;-80
2023/06/02 10:22:25;;;;;;;19.80;18.60;;;21.60;82.20;;;;;;4983505;28;20698;-79
2023/06/02 10:25:03;;;;;;;30.40;28.77;;;21.40;81.80;;;;;;5001634;28;20050;-77
2023/06/02 10:27:35;;;;;;;37.03;35.15;;;21.30;80.40;;;;;;4985412;28;20057;-77
2023/06/02 10:30:02;;;;;;;52.17;49.53;;;21.30;79.50;;;;;;4986880;28;20046;-78
2023/06/02 10:32:46;;;;;;;44.95;42.78;;;21.30;75.00;;;;;;4986314;28;20113;-78
2023/06/02 10:35:12;;;;;;;52.60;50.20;;;21.20;72.80;;;;;;4985737;28;20670;-77
2023/06/02 10:37:39;;;;;;;36.83;34.90;;;21.20;72.40;;;;;;4982258;28;20362;-79
2023/06/02 10:40:05;;;;;;;43.63;41.58;;;21.10;73.90;;;;;;4980245;28;20039;-77
2023/06/02 10:42:31;;;;;;;31.65;29.95;;;21.20;72.90;;;;;;4983280;28;20069;-79
2023/06/02 10:45:24;;;;;;;42.53;40.45;;;21.40;68.50;;;;;;4985368;28;20054;-78
2023/06/02 10:47:50;;;;;;;53.38;50.35;;;21.40;68.00;;;;;;4968514;28;20517;-77
2023/06/02 10:50:21;;;;;;;59.03;56.22;;;21.30;67.50;;;;;;4985356;28;20046;-79
2023/06/02 10:52:59;;;;;;;41.25;39.20;;;21.30;70.10;;;;;;4967723;28;20068;-78
2023/06/02 10:55:26;;;;;;;54.67;52.17;;;21.50;71.40;;;;;;4984367;28;20525;-76
2023/06/02 10:58:01;;;;;;;45.35;43.22;;;21.50;66.80;;;;;;4983313;28;20072;-78
2023/06/02 11:00:32;;;;;;;49.70;47.20;;;21.50;66.60;;;;;;4982477;28;20623;-77
2023/06/02 11:02:59;;;;;;;55.47;53.03;;;21.60;64.30;;;;;;4981110;28;20034;-78
2023/06/02 11:05:29;;;;;;;24.02;22.73;;;21.50;65.90;;;;;;4983815;28;20046;-77
2023/06/02 11:08:14;;;;;;;67.85;64.85;;;21.40;66.20;;;;;;4980938;28;20042;-78
2023/06/02 11:10:43;;;;;;;;;;;21.50;67.90;;;;;;4982079;28;20086;-77
2023/06/02 11:13:10;;;;;;;32.72;31.00;;;21.50;68.30;;;;;;4982186;28;19917;-76
2023/06/02 11:15:36;;;;;;;26.92;25.55;;;21.60;69.70;;;;;;4984034;28;20077;-76
2023/06/02 11:18:22;;;;;;;26.80;25.27;;;21.70;69.20;;;;;;4983176;28;20038;-77
2023/06/02 11:20:55;;;;;;;37.67;35.78;;;21.80;68.60;;;;;;4984388;28;20053;-79
2023/06/02 11:23:22;;;;;;;25.75;24.33;;;21.80;73.20;;;;;;4986938;28;20046;-77
2023/06/02 11:25:49;;;;;;;17.58;16.27;;;22.00;72.30;;;;;;4987219;28;20399;-79
2023/06/02 11:28:23;;;;;;;19.08;17.80;;;22.00;70.20;;;;;;4982007;28;20054;-76
2023/06/02 11:31:08;;;;;;;40.95;38.80;;;21.80;70.80;;;;;;4978272;28;20052;-79
2023/06/02 11:33:36;;;;;;;53.13;50.53;;;21.70;74.60;;;;;;4999887;28;20446;-78
2023/06/02 11:36:08;;;;;;;39.03;37.08;;;21.70;76.70;;;;;;4985794;28;20042;-77
2023/06/02 11:38:34;;;;;;;33.05;31.13;;;21.80;77.50;;;;;;4971219;28;20038;-79
2023/06/02 11:41:10;;;;;;;27.15;25.55;;;21.80;78.80;;;;;;4986473;28;20038;-78
2023/06/02 11:43:40;;;;;;;35.42;33.25;;;21.80;79.20;;;;;;4986886;28;20401;-77
2023/06/02 11:46:06;;;;;;;30.48;28.73;;;21.60;78.60;;;;;;4981788;28;20054;-77
2023/06/02 11:48:32;;;;;;;25.27;23.58;;;21.70;79.80;;;;;;4985558;28;20538;-77
2023/06/02 11:50:58;;;;;;;15.98;14.65;;;21.70;78.90;;;;;;4986770;28;20049;-77
2023/06/02 11:53:23;;;;;;;17.15;16.10;;;21.80;78.30;;;;;;4985048;28;20486;-76
2023/06/02 11:55:51;;;;;;;26.17;24.48;;;21.90;77.30;;;;;;4987808;28;20038;-79
2023/06/02 11:58:24;;;;;;;19.83;18.48;;;22.00;79.80;;;;;;4986412;28;20078;-77
2023/06/02 12:00:52;;;;;;;26.88;24.98;;;22.20;80.90;;;;;;4982344;28;20038;-76
2023/06/02 12:03:17;;;;;;;13.95;12.88;;;22.30;80.80;;;;;;4986376;28;20042;-75
2023/06/02 12:05:45;;;;;;;19.15;17.73;;;22.20;83.10;;;;;;4969272;28;20039;-77
2023/06/02 12:08:25;;;;;;;26.08;24.48;;;22.30;84.80;;;;;;5003430;28;20461;-78
2023/06/02 12:10:53;;;;;;;22.55;20.85;;;22.60;83.40;;;;;;4976684;28;20097;-78
2023/06/02 12:13:26;;;;;;;26.88;24.98;;;22.70;83.60;;;;;;4987832;28;20054;-77
2023/06/02 12:15:53;;;;;;;19.08;17.85;;;22.80;83.00;;;;;;5000196;28;20054;-77
2023/06/02 12:18:31;;;;;;;19.10;17.80;;;22.80;83.80;;;;;;4970513;28;20068;-77
2023/06/02 12:20:57;;;;;;;30.67;28.88;;;22.80;83.30;;;;;;5002440;28;20394;-76
2023/06/02 12:23:23;;;;;;;22.15;20.52;;;22.90;83.20;;;;;;4985325;28;20047;-77